Weather reports worldwide

Advertisment
Brocken, Germany (10453): temperature & dewpoint: 20.03.2019 08:00:00 - 26.03.2019 08:00:00 (CET)Brocken, Germany (10453): wind speed & gusts: 20.03.2019 08:00:00 - 26.03.2019 08:00:00 (CET)Brocken, Germany (10453): wind direction: 20.03.2019 08:00:00 - 26.03.2019 08:00:00 (CET)Brocken, Germany (10453): visibility: 20.03.2019 08:00:00 - 26.03.2019 08:00:00 (CET)Brocken, Germany (10453): sunshine duration: 20.03.2019 08:00:00 - 26.03.2019 08:00:00 (CET)
Date & Time tt [°C] td [°C] ff [km/h] ff [kn] fx [km/h] fx [kn] dd vv [km] sd [min]
26.03.2019 08:00:00 - - - - - - - - -
26.03.2019 07:00:00 -3,7 -4,1 49 26 62 34 W - 0
26.03.2019 06:00:00 -3,1 -3,4 45 24 59 32 W - 0
26.03.2019 05:00:00 -2,7 -2,9 36 19 54 29 WNW - 0
26.03.2019 04:00:00 -2,5 -2,7 34 19 44 24 WNW - 0
26.03.2019 03:00:00 -2,6 -2,8 33 18 45 24 NNW - 0
26.03.2019 02:00:00 -2,5 -2,7 36 19 53 29 NNW - 0
26.03.2019 01:00:00 -2,4 -2,6 38 21 55 30 NNW - 0
26.03.2019 00:00:00 -2,2 -2,4 43 23 56 30 NNW - 0
25.03.2019 23:00:00 -2,0 -2,1 45 24 61 33 N - 0
25.03.2019 22:00:00 -1,9 -2,0 45 24 61 33 N - 0
25.03.2019 21:00:00 -2,1 -2,2 48 26 63 34 N - 0
25.03.2019 20:00:00 -2,4 -2,6 47 26 63 34 NNW 0,1 0
25.03.2019 19:00:00 -2,8 -3,0 46 25 64 34 NNW 0,1 0
25.03.2019 18:00:00 -2,8 -3,0 37 20 55 30 NW 0,1 0
25.03.2019 17:00:00 -2,5 -2,8 32 17 53 29 NW 0,1 0
25.03.2019 16:00:00 -2,3 -2,6 39 21 64 34 NW 0,1 2
25.03.2019 15:00:00 -2,3 -2,5 50 27 74 40 NNW 0,1 0
25.03.2019 14:00:00 -2,7 -2,9 40 22 61 33 NW 0,1 0
25.03.2019 13:00:00 -2,5 -2,8 37 20 64 35 WNW 0,1 0
25.03.2019 12:00:00 -2,8 -3,0 48 26 74 40 W 0,1 0
25.03.2019 11:00:00 -2,8 -3,1 48 26 69 37 W 0,1 1
25.03.2019 10:00:00 -3,3 -3,6 51 27 65 35 W - 0
25.03.2019 09:00:00 -3,4 -3,6 39 21 64 34 W - 0
25.03.2019 08:00:00 -3,9 -4,3 49 26 75 40 WNW - 0
25.03.2019 07:00:00 -3,5 -3,7 52 28 87 47 W - 0
25.03.2019 06:00:00 -3,4 -3,6 61 33 91 49 WSW - 0
25.03.2019 05:00:00 -3,7 -3,9 62 34 79 42 WSW - 0
25.03.2019 04:00:00 -3,8 -4,0 52 28 69 38 W 0,1 0
25.03.2019 03:00:00 -4,5 -4,8 50 27 67 36 W 0,1 0
25.03.2019 02:00:00 -3,7 -3,8 49 26 64 35 W 0,1 0
25.03.2019 01:00:00 -3,3 -3,6 46 25 61 33 W 80 0
25.03.2019 00:00:00 -2,6 -4,0 41 22 58 32 W 82 0
24.03.2019 23:00:00 -2,3 -3,8 37 20 48 26 WNW 82 0
24.03.2019 22:00:00 -2,4 -4,9 40 21 47 26 W 82 0
24.03.2019 21:00:00 -2,1 -5,9 35 19 39 21 W 82 0
24.03.2019 20:00:00 -1,8 -3,9 32 17 36 19 WNW 82 0
24.03.2019 19:00:00 -1,3 -2,1 27 15 35 19 WNW 30 29
24.03.2019 18:00:00 0,2 -1,1 27 15 32 17 W 30 10
24.03.2019 17:00:00 0,8 0,4 16 9 26 14 WNW 0,1 0
24.03.2019 16:00:00 1,5 0,6 13 7 24 13 NW 4,5 0
24.03.2019 15:00:00 3,7 1,0 10 5 20 11 NW 40 3
24.03.2019 14:00:00 4,5 -1,0 15 8 29 16 W 35 48
24.03.2019 13:00:00 1,6 0,2 17 9 22 12 W 30 1
24.03.2019 12:00:00 0,8 0,4 13 7 21 11 N - 0
24.03.2019 11:00:00 2,5 1,1 13 7 21 12 WSW 0,8 7
24.03.2019 10:00:00 1,3 0,2 9 5 15 8 SSW 1,5 3
24.03.2019 09:00:00 1,6 0,7 10 5 13 7 WSW 15 1
24.03.2019 08:00:00 0,8 0,0 4 2 10 6 SW 40 4
24.03.2019 07:00:00 0,5 -0,5 6 3 10 5 SSW 25 0
24.03.2019 06:00:00 0,1 -0,6 3 2 10 5 E 20 0
24.03.2019 05:00:00 0,0 -0,8 4 2 9 5 NE 20 0
24.03.2019 04:00:00 0,6 0,1 6 4 13 7 WSW - 0
24.03.2019 03:00:00 -0,1 -0,1 9 5 17 9 NNE - 0
24.03.2019 02:00:00 0,3 0,3 14 7 18 10 N - 0
24.03.2019 01:00:00 0,4 0,4 16 9 23 12 N - 0
24.03.2019 00:00:00 -0,1 -0,1 16 9 30 16 N - 0
23.03.2019 23:00:00 1,0 1,0 26 14 34 19 N - 0
23.03.2019 22:00:00 2,2 2,2 26 14 41 22 N - 0
23.03.2019 21:00:00 2,1 2,1 36 19 43 23 N - 0
23.03.2019 20:00:00 2,2 2,2 31 17 40 21 N - 0
23.03.2019 19:00:00 2,0 2,0 36 19 40 22 N 0,1 0
23.03.2019 18:00:00 2,1 1,7 33 18 40 21 N 13 13
23.03.2019 17:00:00 2,7 1,5 33 18 41 22 NNW 10 41
23.03.2019 16:00:00 4,2 1,5 24 13 34 18 NNW 5 60
23.03.2019 15:00:00 6,2 -0,8 25 14 34 18 WNW 8 60
23.03.2019 14:00:00 8,0 2,9 26 14 31 17 WNW 8 60
23.03.2019 13:00:00 11,8 4,1 15 8 24 13 W 15 60
23.03.2019 12:00:00 11,8 3,7 8 5 17 9 NW 15 60
23.03.2019 11:00:00 10,9 2,8 12 6 24 13 NW 15 60
23.03.2019 10:00:00 9,4 2,5 18 10 31 17 NW 30 60
23.03.2019 09:00:00 9,0 -1,3 29 16 36 20 WNW 40 60
23.03.2019 08:00:00 7,6 -0,8 29 15 33 18 W 50 59
23.03.2019 07:00:00 6,9 -1,8 25 13 45 24 W 50 31
23.03.2019 06:00:00 6,3 -0,5 39 21 45 25 W 45 0
23.03.2019 05:00:00 6,9 0,2 39 21 45 24 WSW 45 0
23.03.2019 04:00:00 7,7 0,4 38 20 45 25 WSW 40 0
23.03.2019 03:00:00 8,0 1,2 37 20 46 25 SW 35 0
23.03.2019 02:00:00 8,6 2,0 41 22 46 25 SW 30 0
23.03.2019 01:00:00 8,0 3,7 40 22 46 25 SW 20 0
23.03.2019 00:00:00 7,3 4,8 40 21 44 24 SSW 20 0
22.03.2019 23:00:00 7,2 4,9 41 22 47 26 S 15 0
22.03.2019 22:00:00 7,2 4,5 40 22 46 25 S 18 0
22.03.2019 21:00:00 7,2 4,3 40 21 43 23 S 18 0
22.03.2019 20:00:00 7,4 4,6 38 20 40 22 S 15 0
22.03.2019 19:00:00 7,5 4,3 32 17 38 20 SSW 18 38
22.03.2019 18:00:00 8,3 3,2 33 18 37 20 S 27 60
22.03.2019 17:00:00 9,4 3,1 27 15 31 17 S 27 58
22.03.2019 16:00:00 10,3 2,8 25 14 33 18 S 25 60
22.03.2019 15:00:00 10,8 3,6 24 13 32 17 S 20 60
22.03.2019 14:00:00 10,9 2,9 24 13 34 18 S 25 60
22.03.2019 13:00:00 10,8 3,4 19 11 29 15 S 25 60
22.03.2019 12:00:00 10,6 3,3 20 11 28 15 S 40 60
22.03.2019 11:00:00 9,7 3,5 16 9 24 13 SSW 50 60
22.03.2019 10:00:00 9,0 3,5 14 8 22 12 S 50 60
22.03.2019 09:00:00 7,3 2,9 14 8 17 9 S 30 16
22.03.2019 08:00:00 6,8 1,8 13 7 18 10 SSW 30 11
22.03.2019 07:00:00 6,7 2,3 15 8 17 9 S 50 19
22.03.2019 06:00:00 6,8 2,0 13 7 15 8 S 50 0
22.03.2019 05:00:00 6,3 2,6 14 7 15 8 S 13 0
22.03.2019 04:00:00 6,4 2,6 11 6 14 8 SSW 15 0
22.03.2019 03:00:00 6,8 1,8 11 6 13 7 S 15 0
22.03.2019 02:00:00 6,2 2,0 11 6 12 7 S 20 0
22.03.2019 01:00:00 6,3 1,8 3 2 10 5 ENE 20 0
22.03.2019 00:00:00 6,2 2,0 9 5 13 7 NNW 20 0
21.03.2019 23:00:00 5,7 2,1 9 5 14 7 W 20 0
21.03.2019 22:00:00 6,1 2,6 13 7 16 9 NW 20 0
21.03.2019 21:00:00 6,0 3,5 12 7 14 7 W 23 0
21.03.2019 20:00:00 6,0 3,8 6 4 15 8 WSW 25 0
21.03.2019 19:00:00 5,5 4,1 13 7 16 8 NNW 28 32
21.03.2019 18:00:00 6,6 4,1 9 5 12 6 NNW 30 60
21.03.2019 17:00:00 7,6 4,3 9 5 12 7 N 35 58
21.03.2019 16:00:00 8,8 4,9 5 3 15 8 N 45 60
21.03.2019 15:00:00 10,2 3,7 8 4 15 8 N 45 60
21.03.2019 14:00:00 11,3 3,8 9 5 13 7 WNW 40 60
21.03.2019 13:00:00 11,5 4,3 6 3 16 9 NW 40 60
21.03.2019 12:00:00 7,1 3,3 11 6 21 11 SW 35 60
21.03.2019 11:00:00 7,4 3,4 15 8 28 15 WSW 40 59
21.03.2019 10:00:00 6,6 2,9 23 12 34 18 W 35 60
21.03.2019 09:00:00 4,6 2,3 31 17 43 23 W 35 60
21.03.2019 08:00:00 2,7 2,0 32 17 40 21 W 30 54
21.03.2019 07:00:00 1,8 1,7 31 17 39 21 W 60 25
21.03.2019 06:00:00 2,2 1,5 29 16 35 19 W 60 0
21.03.2019 05:00:00 2,1 1,9 32 17 37 20 W 60 0
21.03.2019 04:00:00 1,5 1,5 30 16 36 19 W 8 0
21.03.2019 03:00:00 1,6 1,6 34 18 40 22 W - 0
21.03.2019 02:00:00 1,6 1,6 35 19 39 21 W - 0
21.03.2019 01:00:00 1,6 1,6 34 18 42 23 W - 0
21.03.2019 00:00:00 1,7 1,7 40 21 47 25 W 0,1 0
20.03.2019 23:00:00 1,6 0,7 43 23 49 27 W 40 0
20.03.2019 22:00:00 1,8 0,2 39 21 45 24 W 50 0
20.03.2019 21:00:00 1,8 -0,2 37 20 41 22 W 50 0
20.03.2019 20:00:00 1,9 0,3 33 18 37 20 W 50 0
20.03.2019 19:00:00 1,9 0,1 29 16 36 19 W 45 0
20.03.2019 18:00:00 2,1 -0,2 24 13 33 18 WSW 60 0
20.03.2019 17:00:00 2,4 -0,6 26 14 34 18 WSW 60 0
20.03.2019 16:00:00 4,0 -0,4 27 14 40 21 W 50 55
20.03.2019 15:00:00 2,8 -2,1 29 15 39 21 WSW 60 60
20.03.2019 14:00:00 3,1 -1,6 32 17 39 21 W 60 60
20.03.2019 13:00:00 1,5 -2,3 34 18 40 22 WSW 50 60
20.03.2019 12:00:00 1,3 -1,5 32 18 40 21 WSW 40 59
20.03.2019 11:00:00 1,2 -1,1 28 15 36 19 WSW 30 56
20.03.2019 10:00:00 0,3 -1,3 27 15 34 18 WSW 18 46
20.03.2019 09:00:00 -0,7 -1,6 24 13 31 17 WSW 15 26
20.03.2019 08:00:00 -1,2 -2,1 27 14 33 18 W 25 52

tt = temperature
td = dewpoint
ff = wind speed
fx = gusts
dd = wind direction
vv = visibility
sd = sunshine duration

Next stations